Time;durP1;ratioP1;P1;durP2;ratioP2;P2;SDS_P1;SDS_P2;PMS_P1;PMS_P2;Temp;Humidity;BMP_temperature;BMP_pressure;BME280_temperature;BME280_humidity;BME280_pressure;Samples;Min_cycle;Max_cycle;Signal;HPM_P1;HPM_P2
2022/03/09 00:00:54;;;;;;;7.47;6.18;;;18.00;25.00;;;;;;5118589;28;20140;-45
2022/03/09 00:03:20;;;;;;;7.15;5.82;;;18.00;25.00;;;;;;5119303;28;20020;-43
2022/03/09 00:05:45;;;;;;;6.57;5.78;;;17.90;25.00;;;;;;5100405;28;20504;-41
2022/03/09 00:08:11;;;;;;;7.72;6.07;;;17.90;25.00;;;;;;5118266;28;20022;-40
2022/03/09 00:10:36;;;;;;;7.35;6.10;;;17.90;25.00;;;;;;5118445;28;20019;-43
2022/03/09 00:13:04;;;;;;;7.80;6.30;;;17.90;25.00;;;;;;5119102;28;20041;-41
2022/03/09 00:15:29;;;;;;;7.82;6.00;;;17.90;25.00;;;;;;5118514;28;20031;-42
2022/03/09 00:17:55;;;;;;;7.53;6.40;;;17.90;25.00;;;;;;5117466;28;20023;-40
2022/03/09 00:20:21;;;;;;;7.20;6.05;;;17.90;25.00;;;;;;5099767;28;20020;-39
2022/03/09 00:22:47;;;;;;;7.38;6.00;;;17.90;25.00;;;;;;5118145;28;20088;-43
2022/03/09 00:25:13;;;;;;;8.05;6.40;;;17.90;25.10;;;;;;5117014;28;20022;-40
2022/03/09 00:27:39;;;;;;;7.63;6.53;;;17.90;25.00;;;;;;5098675;28;20012;-40
2022/03/09 00:30:06;;;;;;;7.43;6.45;;;17.90;25.10;;;;;;5117774;28;20077;-40
2022/03/09 00:32:33;;;;;;;7.97;6.40;;;17.80;25.10;;;;;;5117059;28;20099;-40
2022/03/09 00:34:59;;;;;;;7.22;6.30;;;17.80;25.10;;;;;;5117183;28;20019;-39
2022/03/09 00:37:26;;;;;;;7.50;6.43;;;17.80;25.10;;;;;;5098755;28;20020;-41
2022/03/09 00:39:52;;;;;;;8.65;6.97;;;17.80;25.10;;;;;;5116726;28;20044;-42
2022/03/09 00:42:18;;;;;;;7.35;6.43;;;17.80;25.00;;;;;;5098894;28;20028;-39
2022/03/09 00:44:44;;;;;;;7.85;6.43;;;17.80;25.10;;;;;;5116099;28;20016;-40
2022/03/09 00:47:09;;;;;;;7.78;6.53;;;17.80;25.10;;;;;;5116022;28;20022;-40
2022/03/09 00:49:36;;;;;;;8.50;6.80;;;17.80;25.10;;;;;;5116233;28;20521;-41
2022/03/09 00:52:02;;;;;;;8.00;6.60;;;17.80;25.10;;;;;;5098302;28;20043;-40
2022/03/09 00:54:27;;;;;;;7.35;6.40;;;17.80;25.20;;;;;;5117324;28;20020;-40
2022/03/09 00:56:53;;;;;;;8.23;6.72;;;17.80;25.10;;;;;;5118675;28;20020;-40
2022/03/09 00:59:19;;;;;;;9.02;7.07;;;17.80;25.20;;;;;;5116640;28;20024;-44
2022/03/09 01:01:45;;;;;;;8.73;6.90;;;17.70;25.10;;;;;;5097946;28;20027;-40
2022/03/09 01:04:11;;;;;;;7.82;6.50;;;17.80;25.10;;;;;;5098109;28;20486;-41
2022/03/09 01:06:36;;;;;;;9.35;7.13;;;17.70;25.10;;;;;;5100837;28;20012;-44
2022/03/09 01:09:02;;;;;;;11.43;6.55;;;17.70;25.20;;;;;;5118925;28;20019;-42
2022/03/09 01:11:28;;;;;;;7.97;6.63;;;17.70;25.20;;;;;;5100956;28;20027;-42
2022/03/09 01:13:54;;;;;;;8.82;7.15;;;17.70;25.20;;;;;;5117391;28;20024;-39
2022/03/09 01:16:21;;;;;;;8.13;6.80;;;17.70;25.20;;;;;;5116232;28;20374;-43
2022/03/09 01:18:48;;;;;;;9.57;7.20;;;17.70;25.20;;;;;;5115090;28;20048;-45
2022/03/09 01:21:14;;;;;;;9.40;6.63;;;17.70;25.20;;;;;;5096509;28;20032;-39
2022/03/09 01:23:40;;;;;;;8.27;6.68;;;17.70;25.20;;;;;;5096768;28;20099;-39
2022/03/09 01:26:06;;;;;;;8.63;6.97;;;17.60;25.20;;;;;;5115113;28;20012;-43
2022/03/09 01:28:34;;;;;;;9.80;7.10;;;17.70;25.20;;;;;;5115348;28;20092;-40
2022/03/09 01:31:03;;;;;;;7.63;6.65;;;17.70;25.20;;;;;;5115510;28;20015;-40
2022/03/09 01:33:29;;;;;;;9.10;7.13;;;17.60;25.20;;;;;;5115703;28;20092;-41
2022/03/09 01:35:54;;;;;;;8.25;7.13;;;17.60;25.20;;;;;;5099130;28;20020;-40
2022/03/09 01:38:21;;;;;;;8.35;6.90;;;17.60;25.20;;;;;;5116996;28;20486;-41
2022/03/09 01:40:47;;;;;;;9.77;7.18;;;17.60;25.20;;;;;;5098222;28;20512;-40
2022/03/09 01:43:14;;;;;;;9.70;7.57;;;17.60;25.20;;;;;;5116264;28;20497;-40
2022/03/09 01:45:40;;;;;;;7.72;6.60;;;17.60;25.30;;;;;;5116017;28;20015;-39
2022/03/09 01:48:26;;;;;;;9.43;7.47;;;17.60;25.20;;;;;;5116061;28;20531;-40
2022/03/09 01:50:51;;;;;;;10.35;7.35;;;17.60;25.30;;;;;;5115498;28;20119;-39
2022/03/09 01:53:18;;;;;;;8.82;6.95;;;17.60;25.30;;;;;;5098345;28;20047;-40
2022/03/09 01:55:44;;;;;;;8.93;7.03;;;17.60;25.30;;;;;;5116547;28;20110;-39
2022/03/09 01:58:09;;;;;;;8.73;6.80;;;17.60;25.30;;;;;;5098136;28;20493;-41
2022/03/09 02:00:35;;;;;;;8.48;6.88;;;17.50;25.30;;;;;;5115915;28;20031;-40
2022/03/09 02:03:01;;;;;;;9.48;7.60;;;17.50;25.30;;;;;;5080210;28;20045;-39
2022/03/09 02:05:27;;;;;;;10.25;7.60;;;17.50;25.30;;;;;;5115059;28;20381;-39
2022/03/09 02:10:37;;;;;;;8.35;7.00;;;17.50;25.40;;;;;;5115518;28;20027;-39
2022/03/09 02:13:03;;;;;;;9.52;6.97;;;17.50;25.40;;;;;;5097066;28;20037;-39
2022/03/09 02:15:28;;;;;;;8.85;7.00;;;17.50;25.30;;;;;;5115670;28;20024;-39
2022/03/09 02:17:56;;;;;;;8.85;7.47;;;17.50;25.40;;;;;;5115674;28;20027;-40
2022/03/09 02:20:21;;;;;;;8.60;7.25;;;17.50;25.40;;;;;;5115521;28;20034;-40
2022/03/09 02:22:47;;;;;;;9.30;7.43;;;17.50;25.40;;;;;;5115224;28;20023;-40
2022/03/09 02:25:15;;;;;;;8.50;6.88;;;17.40;25.40;;;;;;5114763;28;20016;-40
2022/03/09 02:27:42;;;;;;;10.35;7.55;;;17.50;25.40;;;;;;5115196;28;20015;-39
2022/03/09 02:30:09;;;;;;;8.63;7.32;;;17.40;25.40;;;;;;5097027;28;20369;-42
2022/03/09 02:32:42;;;;;;;9.63;7.88;;;17.50;25.50;;;;;;5117286;28;20094;-42
2022/03/09 02:35:11;;;;;;;9.35;7.20;;;17.40;25.40;;;;;;5117198;28;20023;-40
2022/03/09 02:37:38;;;;;;;9.02;7.53;;;17.40;25.40;;;;;;5099995;28;20023;-39
2022/03/09 02:40:09;;;;;;;9.15;6.72;;;17.40;25.40;;;;;;5118041;28;20443;-43
2022/03/09 02:42:34;;;;;;;8.50;7.10;;;17.40;25.50;;;;;;5118375;28;20573;-40
2022/03/09 02:45:00;;;;;;;8.30;7.05;;;17.40;25.50;;;;;;5100168;28;20085;-42
2022/03/09 02:47:26;;;;;;;9.45;7.88;;;17.40;25.50;;;;;;5100649;28;20481;-43
2022/03/09 02:49:52;;;;;;;9.57;7.47;;;17.40;25.50;;;;;;5102857;28;20008;-44
2022/03/09 02:52:17;;;;;;;10.10;7.38;;;17.40;25.60;;;;;;5121014;28;20011;-40
2022/03/09 02:54:43;;;;;;;9.82;7.40;;;17.40;25.60;;;;;;5120361;28;20466;-39
2022/03/09 02:57:09;;;;;;;9.90;7.32;;;17.40;25.50;;;;;;5120554;28;20012;-40
2022/03/09 02:59:35;;;;;;;10.77;7.32;;;17.40;25.60;;;;;;5101576;28;20053;-40
2022/03/09 03:02:02;;;;;;;9.18;7.50;;;17.40;25.60;;;;;;5101109;28;20027;-44
2022/03/09 03:04:27;;;;;;;8.52;7.22;;;17.40;25.60;;;;;;5120157;28;20012;-42
2022/03/09 03:06:53;;;;;;;9.35;7.47;;;17.30;25.60;;;;;;5120328;28;20015;-41
2022/03/09 03:09:19;;;;;;;9.00;7.50;;;17.30;25.60;;;;;;5119860;28;20065;-45
2022/03/09 03:11:45;;;;;;;9.05;7.00;;;17.30;25.60;;;;;;5120233;28;20020;-43
2022/03/09 03:14:11;;;;;;;8.55;7.65;;;17.30;25.60;;;;;;5101511;28;20019;-39
2022/03/09 03:16:37;;;;;;;10.07;7.60;;;17.30;25.60;;;;;;5102574;28;20016;-40
2022/03/09 03:19:03;;;;;;;9.00;7.40;;;17.30;25.60;;;;;;5120660;28;20030;-39
2022/03/09 03:21:29;;;;;;;10.57;7.68;;;17.30;25.90;;;;;;5102022;28;20553;-41
2022/03/09 03:23:55;;;;;;;8.93;7.03;;;17.20;25.60;;;;;;5120981;28;20068;-43
2022/03/09 03:26:24;;;;;;;8.18;7.10;;;17.30;25.60;;;;;;5102272;28;20469;-40
2022/03/09 03:28:50;;;;;;;8.15;7.30;;;17.30;25.70;;;;;;5102743;28;20093;-40
2022/03/09 03:31:16;;;;;;;9.20;7.70;;;17.30;25.70;;;;;;5120326;28;20020;-39
2022/03/09 03:33:42;;;;;;;9.25;7.10;;;17.20;25.60;;;;;;5102122;28;20023;-43
2022/03/09 03:36:08;;;;;;;8.77;7.10;;;17.30;25.70;;;;;;5119664;28;20030;-39
2022/03/09 03:38:33;;;;;;;8.23;7.13;;;17.20;25.70;;;;;;5100542;28;20016;-41
2022/03/09 03:40:59;;;;;;;9.38;7.30;;;17.20;25.70;;;;;;5099960;28;20502;-39
2022/03/09 03:43:25;;;;;;;8.93;7.45;;;17.20;25.80;;;;;;5100154;28;20096;-40
2022/03/09 03:45:51;;;;;;;9.00;7.63;;;17.20;25.70;;;;;;5100931;28;20072;-40
2022/03/09 03:48:17;;;;;;;9.35;7.47;;;17.20;25.80;;;;;;5118102;28;20116;-39
2022/03/09 03:50:42;;;;;;;8.20;7.30;;;17.20;25.80;;;;;;5117182;28;20562;-40
2022/03/09 03:53:08;;;;;;;8.60;7.13;;;17.20;25.80;;;;;;5117588;28;20019;-39
2022/03/09 03:55:35;;;;;;;9.15;7.55;;;17.20;25.90;;;;;;5117179;28;20015;-38
2022/03/09 03:58:01;;;;;;;8.70;7.28;;;17.20;25.90;;;;;;5117568;28;20023;-38
2022/03/09 04:00:26;;;;;;;8.88;7.25;;;17.10;25.90;;;;;;5117873;28;20093;-41
2022/03/09 04:02:53;;;;;;;8.95;7.20;;;17.10;25.90;;;;;;5118501;28;20047;-39
2022/03/09 04:05:18;;;;;;;8.50;7.03;;;17.10;25.90;;;;;;5100326;28;20058;-39
2022/03/09 04:07:45;;;;;;;10.00;7.20;;;17.20;25.90;;;;;;5119309;28;20018;-40
2022/03/09 04:10:11;;;;;;;8.23;6.80;;;17.10;25.90;;;;;;5118579;28;20481;-38
2022/03/09 04:12:36;;;;;;;8.20;7.18;;;17.10;25.90;;;;;;5098953;28;20023;-39
2022/03/09 04:15:03;;;;;;;8.13;7.00;;;17.10;25.90;;;;;;5118947;28;20019;-40
2022/03/09 04:17:28;;;;;;;9.90;6.55;;;17.10;25.90;;;;;;5119841;28;20020;-44
2022/03/09 04:19:54;;;;;;;8.77;7.18;;;17.10;25.90;;;;;;5120113;28;20015;-39
2022/03/09 04:22:20;;;;;;;9.73;7.40;;;17.10;25.90;;;;;;5118553;28;20042;-39
2022/03/09 04:24:46;;;;;;;8.13;7.00;;;17.10;26.00;;;;;;5099544;28;20050;-40
2022/03/09 04:27:11;;;;;;;8.02;6.63;;;17.10;26.00;;;;;;5098470;28;20026;-39
2022/03/09 04:29:37;;;;;;;8.13;6.85;;;17.10;26.00;;;;;;5098673;28;20359;-38
2022/03/09 04:32:03;;;;;;;9.02;7.55;;;17.10;26.00;;;;;;5099127;28;20019;-39
2022/03/09 04:34:29;;;;;;;8.57;7.32;;;17.10;26.00;;;;;;5098845;28;20024;-41
2022/03/09 04:36:55;;;;;;;9.15;7.15;;;17.10;26.00;;;;;;5099163;28;20023;-39
2022/03/09 04:39:21;;;;;;;7.55;6.68;;;17.10;26.10;;;;;;5116503;28;20027;-38
2022/03/09 04:41:47;;;;;;;7.90;6.68;;;17.10;26.10;;;;;;5115872;28;20103;-39
2022/03/09 04:44:13;;;;;;;8.68;7.30;;;17.10;26.10;;;;;;5131464;27;20011;-41
2022/03/09 04:46:39;;;;;;;7.95;7.00;;;17.10;26.10;;;;;;5097906;28;20024;-38
2022/03/09 04:49:05;;;;;;;8.23;7.03;;;17.10;26.00;;;;;;5115911;28;20026;-40
2022/03/09 04:51:31;;;;;;;10.95;7.03;;;17.10;26.00;;;;;;5097642;28;20099;-40
2022/03/09 04:53:56;;;;;;;8.45;6.70;;;17.20;26.00;;;;;;5097199;28;20019;-40
2022/03/09 04:56:23;;;;;;;8.70;6.82;;;17.20;25.90;;;;;;5116425;28;20046;-39
2022/03/09 04:58:49;;;;;;;9.10;7.18;;;17.30;25.90;;;;;;5116419;28;20478;-39
2022/03/09 05:01:15;;;;;;;8.05;6.45;;;17.40;26.10;;;;;;5116154;28;20024;-38
2022/03/09 05:03:40;;;;;;;9.07;7.28;;;17.50;25.70;;;;;;5116298;28;20493;-41
2022/03/09 05:06:07;;;;;;;7.55;6.47;;;17.60;25.60;;;;;;5116715;28;20027;-39
2022/03/09 05:08:33;;;;;;;8.02;6.50;;;17.80;25.50;;;;;;5116622;28;20015;-39
2022/03/09 05:11:00;;;;;;;8.50;6.70;;;17.90;25.40;;;;;;5116456;28;20020;-39
2022/03/09 05:13:25;;;;;;;7.38;6.10;;;17.90;25.30;;;;;;5117010;28;20041;-41
2022/03/09 05:15:52;;;;;;;8.13;6.80;;;18.00;25.20;;;;;;5099288;28;20382;-42
2022/03/09 05:18:19;;;;;;;7.22;6.22;;;18.10;25.20;;;;;;5117166;28;20016;-40
2022/03/09 05:20:46;;;;;;;8.82;6.50;;;18.20;25.20;;;;;;5099101;28;20031;-44
2022/03/09 05:23:12;;;;;;;7.35;6.18;;;18.30;25.00;;;;;;5117537;28;20008;-42
2022/03/09 05:25:37;;;;;;;8.35;6.60;;;18.50;24.90;;;;;;5118211;28;20015;-40
2022/03/09 05:28:03;;;;;;;10.05;7.00;;;18.60;24.80;;;;;;5099995;28;20061;-39
2022/03/09 05:30:29;;;;;;;7.55;6.07;;;18.70;24.70;;;;;;5100018;28;20015;-42
2022/03/09 05:32:55;;;;;;;7.50;6.00;;;18.80;24.60;;;;;;5118312;28;20043;-39
2022/03/09 05:35:21;;;;;;;8.27;6.47;;;18.90;24.50;;;;;;5099508;28;20028;-40
2022/03/09 05:37:47;;;;;;;6.90;6.05;;;18.90;24.40;;;;;;5117260;28;20031;-40
2022/03/09 05:40:13;;;;;;;6.90;5.90;;;19.10;24.30;;;;;;5116506;28;20082;-39
2022/03/09 05:42:39;;;;;;;7.32;5.60;;;19.20;24.20;;;;;;5116910;28;20016;-38
2022/03/09 05:45:06;;;;;;;7.30;5.90;;;19.30;24.10;;;;;;5098715;28;20065;-40
2022/03/09 05:47:31;;;;;;;7.00;5.55;;;19.50;24.10;;;;;;5098230;28;20016;-41
2022/03/09 05:49:57;;;;;;;7.35;5.63;;;19.50;24.00;;;;;;5115885;28;20026;-43
2022/03/09 05:52:23;;;;;;;6.47;5.60;;;19.70;23.90;;;;;;5115747;28;20012;-40
2022/03/09 05:54:49;;;;;;;7.68;5.70;;;19.80;23.80;;;;;;5116070;28;20508;-39
2022/03/09 05:57:18;;;;;;;7.00;5.80;;;19.90;23.70;;;;;;5116133;28;20016;-40
2022/03/09 05:59:44;;;;;;;6.30;5.50;;;20.00;23.60;;;;;;5097952;28;20031;-41
2022/03/09 06:02:10;;;;;;;7.30;5.60;;;20.10;23.60;;;;;;5116466;28;20020;-42
2022/03/09 06:04:36;;;;;;;6.18;5.20;;;20.10;23.50;;;;;;5117233;28;20027;-38
2022/03/09 06:07:02;;;;;;;7.50;5.85;;;20.20;23.40;;;;;;5081406;28;20015;-41
2022/03/09 06:09:28;;;;;;;8.48;5.35;;;20.40;23.30;;;;;;5117466;28;20011;-38
2022/03/09 06:11:54;;;;;;;7.00;5.30;;;20.50;23.20;;;;;;5099622;28;20015;-39
2022/03/09 06:14:21;;;;;;;7.18;5.25;;;20.60;23.20;;;;;;5117114;28;20102;-37
2022/03/09 06:16:51;;;;;;;6.40;5.30;;;20.60;23.10;;;;;;5116091;28;20022;-38
2022/03/09 06:19:17;;;;;;;7.22;4.93;;;20.80;23.00;;;;;;5115234;28;20085;-38
2022/03/09 06:21:43;;;;;;;5.65;5.10;;;20.90;23.00;;;;;;5115983;28;20019;-40
2022/03/09 06:24:09;;;;;;;5.88;5.18;;;20.90;22.90;;;;;;5119105;28;20492;-39
2022/03/09 06:26:36;;;;;;;5.63;4.70;;;21.00;22.80;;;;;;5119957;28;20068;-39
2022/03/09 06:29:05;;;;;;;5.88;4.70;;;21.10;22.70;;;;;;5120004;28;20019;-39
2022/03/09 06:31:31;;;;;;;5.10;4.57;;;21.20;22.70;;;;;;5102069;28;20059;-38
2022/03/09 06:33:57;;;;;;;6.90;4.80;;;21.30;22.60;;;;;;5120642;28;20496;-37
2022/03/09 06:36:23;;;;;;;7.07;5.05;;;21.30;22.50;;;;;;5121122;28;20007;-39
2022/03/09 06:38:50;;;;;;;6.88;4.80;;;21.50;22.50;;;;;;5101821;28;20036;-38
2022/03/09 06:41:15;;;;;;;5.55;4.60;;;21.60;22.40;;;;;;5098335;28;20048;-38
2022/03/09 06:43:41;;;;;;;6.28;4.93;;;21.90;22.30;;;;;;5098202;28;20019;-41
2022/03/09 06:46:07;;;;;;;6.68;4.60;;;22.30;21.90;;;;;;5097401;28;20466;-36
2022/03/09 06:48:33;;;;;;;4.85;4.35;;;22.80;21.50;;;;;;5098659;28;20374;-39
2022/03/09 06:50:59;;;;;;;6.70;4.32;;;23.10;21.20;;;;;;5098591;28;20040;-40
2022/03/09 06:53:25;;;;;;;6.22;4.30;;;23.10;21.10;;;;;;5097662;28;20042;-38
2022/03/09 06:55:51;;;;;;;4.90;4.28;;;23.20;21.20;;;;;;5098304;28;20073;-41
2022/03/09 06:58:19;;;;;;;5.38;4.15;;;23.60;20.90;;;;;;5097348;28;20024;-39
2022/03/09 07:00:44;;;;;;;5.43;4.20;;;23.70;20.70;;;;;;5097408;28;20134;-40
2022/03/09 07:03:11;;;;;;;5.03;4.43;;;23.70;20.70;;;;;;5096943;28;20020;-38
2022/03/09 07:05:38;;;;;;;6.43;4.38;;;23.70;20.70;;;;;;5096553;28;20032;-40
2022/03/09 07:08:05;;;;;;;5.68;4.30;;;23.70;20.80;;;;;;5095421;28;20099;-38
2022/03/09 07:10:31;;;;;;;6.50;4.80;;;23.60;20.80;;;;;;5077378;28;20120;-39
2022/03/09 07:12:58;;;;;;;4.93;4.00;;;23.70;20.80;;;;;;5095200;28;20016;-38
2022/03/09 07:15:24;;;;;;;6.95;4.82;;;23.70;20.80;;;;;;5095828;28;20091;-39
2022/03/09 07:17:50;;;;;;;7.95;4.68;;;23.60;20.80;;;;;;5076761;28;20030;-39
2022/03/09 07:20:16;;;;;;;7.85;4.50;;;23.50;20.80;;;;;;5092763;28;20024;-38
2022/03/09 07:22:43;;;;;;;6.25;4.32;;;23.50;20.80;;;;;;5092916;28;20030;-39
2022/03/09 07:25:09;;;;;;;12.68;5.82;;;23.30;21.00;;;;;;5093948;28;20079;-39
2022/03/09 07:27:36;;;;;;;23.48;7.78;;;23.10;22.30;;;;;;5095519;28;20062;-38
2022/03/09 07:30:05;;;;;;;19.73;8.15;;;22.80;22.90;;;;;;5096510;28;20012;-41
2022/03/09 07:32:31;;;;;;;26.93;8.70;;;22.70;23.00;;;;;;5096385;28;20106;-39
2022/03/09 07:34:56;;;;;;;23.30;8.02;;;22.60;23.00;;;;;;5097793;28;20461;-40
2022/03/09 07:37:22;;;;;;;18.63;7.75;;;22.60;23.00;;;;;;5095655;28;20377;-40
2022/03/09 07:39:48;;;;;;;20.85;8.68;;;22.70;22.80;;;;;;5099510;28;20461;-40
2022/03/09 07:42:16;;;;;;;17.08;8.13;;;22.60;22.50;;;;;;5116853;28;20036;-39
2022/03/09 07:44:41;;;;;;;20.33;8.52;;;22.70;22.60;;;;;;5117503;28;20042;-38
2022/03/09 07:47:07;;;;;;;20.00;9.13;;;22.80;22.50;;;;;;5118419;28;20011;-38
2022/03/09 07:49:33;;;;;;;13.48;8.98;;;22.80;22.30;;;;;;5099123;28;20023;-38
2022/03/09 07:52:00;;;;;;;15.32;9.13;;;22.80;22.20;;;;;;5117238;28;20015;-39
2022/03/09 07:54:27;;;;;;;14.80;8.70;;;22.80;22.10;;;;;;5117164;28;20008;-38
2022/03/09 07:56:53;;;;;;;21.98;9.07;;;22.90;22.30;;;;;;5117273;28;20121;-41
2022/03/09 07:59:20;;;;;;;14.70;8.85;;;23.00;22.20;;;;;;5117942;28;20047;-39
2022/03/09 08:01:52;;;;;;;17.77;8.75;;;23.10;22.30;;;;;;5101062;28;20498;-42
2022/03/09 08:04:18;;;;;;;19.98;9.57;;;23.10;22.10;;;;;;5100540;28;20019;-38
2022/03/09 08:06:48;;;;;;;15.50;9.25;;;23.20;22.00;;;;;;5118485;28;20012;-45
2022/03/09 08:09:14;;;;;;;18.53;9.10;;;23.20;22.00;;;;;;5116671;28;20004;-38
2022/03/09 08:11:40;;;;;;;14.55;9.60;;;23.30;22.00;;;;;;5098223;28;20488;-38
2022/03/09 08:14:08;;;;;;;17.55;9.73;;;23.30;22.00;;;;;;5114361;28;20474;-38
2022/03/09 08:16:34;;;;;;;22.23;10.18;;;23.30;22.50;;;;;;5095026;28;20110;-44
2022/03/09 08:19:00;;;;;;;19.23;10.05;;;23.10;22.10;;;;;;5078151;28;20077;-40
2022/03/09 08:21:25;;;;;;;24.52;9.88;;;22.40;23.20;;;;;;5094786;28;20039;-40
2022/03/09 08:23:51;;;;;;;23.17;10.25;;;22.30;23.50;;;;;;5113392;28;20016;-39
2022/03/09 08:26:17;;;;;;;20.98;10.15;;;22.40;23.50;;;;;;5096061;28;20016;-40
2022/03/09 08:28:42;;;;;;;25.77;11.68;;;22.50;23.20;;;;;;5113975;28;20081;-40
2022/03/09 08:31:08;;;;;;;18.42;11.88;;;22.50;23.00;;;;;;5114980;28;20027;-40
2022/03/09 08:33:34;;;;;;;20.15;12.23;;;22.10;22.90;;;;;;5095846;28;20034;-38
2022/03/09 08:35:59;;;;;;;21.80;11.95;;;22.10;23.00;;;;;;5096064;28;20095;-39
2022/03/09 08:38:25;;;;;;;21.15;12.23;;;22.30;22.80;;;;;;5096628;28;20462;-38
2022/03/09 08:40:51;;;;;;;20.15;12.57;;;22.40;22.70;;;;;;5095156;28;20137;-38
2022/03/09 08:43:17;;;;;;;19.90;12.00;;;22.20;22.80;;;;;;5114453;28;20012;-39
2022/03/09 08:45:44;;;;;;;19.83;12.90;;;22.40;22.60;;;;;;5114294;28;20087;-37
2022/03/09 08:48:10;;;;;;;21.75;13.95;;;21.50;22.90;;;;;;5095152;28;20019;-35
2022/03/09 08:50:36;;;;;;;20.20;13.27;;;21.50;22.90;;;;;;5096484;28;20022;-38
2022/03/09 08:53:01;;;;;;;19.50;12.52;;;21.60;22.90;;;;;;5113658;28;20058;-37
2022/03/09 08:55:27;;;;;;;18.00;12.65;;;21.00;23.10;;;;;;5113651;28;20016;-35
2022/03/09 08:57:53;;;;;;;23.27;13.75;;;21.00;23.30;;;;;;5113636;28;20099;-39
2022/03/09 09:00:19;;;;;;;24.52;14.45;;;21.40;23.00;;;;;;5114318;28;20011;-42
2022/03/09 09:02:45;;;;;;;27.52;13.68;;;21.30;22.40;;;;;;5112435;28;20332;-39
2022/03/09 09:05:11;;;;;;;24.10;13.90;;;21.00;23.30;;;;;;5114173;28;20102;-41
2022/03/09 09:07:37;;;;;;;25.45;14.05;;;20.60;23.20;;;;;;5079755;28;20020;-37
2022/03/09 09:10:04;;;;;;;29.35;13.63;;;20.30;23.30;;;;;;5114641;28;20012;-37
2022/03/09 09:12:30;;;;;;;22.75;13.65;;;20.30;23.50;;;;;;5096589;28;20019;-39
2022/03/09 09:14:56;;;;;;;27.42;14.18;;;20.40;23.40;;;;;;5078339;28;20153;-38
2022/03/09 09:17:22;;;;;;;29.20;13.73;;;20.70;23.10;;;;;;5094144;28;20023;-39
2022/03/09 09:19:48;;;;;;;23.77;13.88;;;20.90;22.80;;;;;;5093726;28;20026;-39
2022/03/09 09:22:16;;;;;;;29.35;13.65;;;20.90;23.00;;;;;;5095924;28;20416;-39
2022/03/09 09:24:45;;;;;;;31.58;14.02;;;21.10;23.50;;;;;;5096085;28;20435;-40
2022/03/09 09:27:11;;;;;;;25.20;14.13;;;21.20;23.60;;;;;;5096286;28;20012;-39
2022/03/09 09:29:37;;;;;;;21.73;13.32;;;21.50;23.40;;;;;;5113153;28;20019;-40
2022/03/09 09:32:05;;;;;;;25.20;13.70;;;21.80;23.70;;;;;;5113535;28;20027;-39
2022/03/09 09:34:31;;;;;;;26.17;13.35;;;22.10;23.50;;;;;;5113214;28;20090;-39
2022/03/09 09:36:59;;;;;;;22.77;14.43;;;21.80;23.80;;;;;;5112442;28;20530;-38
2022/03/09 09:39:24;;;;;;;25.65;14.80;;;21.40;24.00;;;;;;5112761;28;20022;-41
2022/03/09 09:41:54;;;;;;;21.45;13.68;;;21.10;24.50;;;;;;5077634;28;20052;-39
2022/03/09 09:44:23;;;;;;;20.10;14.00;;;21.50;24.20;;;;;;5095095;28;20106;-39
2022/03/09 09:46:49;;;;;;;20.65;12.68;;;21.90;23.90;;;;;;5112653;28;20038;-44
2022/03/09 09:49:15;;;;;;;20.08;13.32;;;22.20;23.70;;;;;;5077881;28;20023;-36
2022/03/09 09:51:42;;;;;;;21.50;13.13;;;22.40;23.50;;;;;;5113341;28;20031;-38
2022/03/09 09:54:08;;;;;;;20.48;13.55;;;22.50;23.50;;;;;;5094029;28;20026;-36
2022/03/09 09:56:38;;;;;;;24.77;14.40;;;22.30;23.50;;;;;;5111985;28;20028;-40
2022/03/09 09:59:05;;;;;;;22.00;13.57;;;22.30;23.60;;;;;;5117548;28;20011;-38
2022/03/09 10:01:31;;;;;;;25.13;14.25;;;22.30;24.00;;;;;;5117209;28;20034;-37
2022/03/09 10:03:56;;;;;;;19.95;13.50;;;22.20;23.60;;;;;;5117331;28;20020;-37
2022/03/09 10:06:22;;;;;;;29.27;13.77;;;22.20;24.10;;;;;;5117551;28;20099;-39
2022/03/09 10:09:07;;;;;;;24.17;14.35;;;22.30;24.00;;;;;;5097532;28;20374;-38
2022/03/09 10:11:55;;;;;;;23.15;13.82;;;22.00;23.90;;;;;;5099069;28;20016;-40
2022/03/09 10:14:42;;;;;;;23.88;13.98;;;22.10;23.60;;;;;;5118048;28;20020;-39
2022/03/09 10:17:18;;;;;;;21.25;15.27;;;22.40;23.20;;;;;;5099064;28;20105;-39
2022/03/09 10:19:50;;;;;;;25.38;15.77;;;21.40;23.50;;;;;;5117583;28;20023;-41
2022/03/09 10:22:30;;;;;;;25.77;15.27;;;20.60;24.40;;;;;;5119873;28;20023;-40
2022/03/09 10:25:20;;;;;;;22.52;14.27;;;21.20;24.00;;;;;;5099617;28;20462;-39
2022/03/09 10:27:50;;;;;;;21.45;14.00;;;21.80;23.50;;;;;;5090735;28;20035;-37
2022/03/09 10:30:16;;;;;;;;;;;22.30;23.00;;;;;;5117180;28;20027;-38
2022/03/09 10:32:46;;;;;;;21.25;14.63;;;22.50;22.80;;;;;;5116541;28;19908;-37
2022/03/09 10:35:14;;;;;;;25.77;15.77;;;22.10;23.10;;;;;;5099246;28;20026;-39
2022/03/09 10:37:40;;;;;;;21.67;14.85;;;21.50;23.50;;;;;;5116700;28;20024;-39
2022/03/09 10:40:10;;;;;;;22.95;15.00;;;21.50;23.70;;;;;;5117307;28;20093;-40
2022/03/09 10:42:36;;;;;;;25.88;15.27;;;21.80;23.40;;;;;;5117554;28;20053;-39
2022/03/09 10:45:05;;;;;;;23.17;14.25;;;22.00;23.30;;;;;;5099255;28;20404;-40
2022/03/09 10:47:36;;;;;;;21.05;14.07;;;22.20;23.10;;;;;;5117166;28;20020;-40
2022/03/09 10:50:11;;;;;;;25.08;14.77;;;22.40;23.10;;;;;;5116526;28;20011;-40
2022/03/09 10:52:51;;;;;;;20.80;14.00;;;22.20;23.40;;;;;;5116899;28;20023;-40
2022/03/09 10:55:21;;;;;;;;;;;22.80;23.10;;;;;;5117123;28;20004;-40
2022/03/09 10:57:47;;;;;;;20.15;12.13;;;23.20;22.80;;;;;;5116112;28;19900;-38
2022/03/09 11:00:13;;;;;;;17.63;11.20;;;23.70;22.60;;;;;;5097801;28;20163;-38
2022/03/09 11:02:49;;;;;;;22.60;10.85;;;24.10;22.80;;;;;;5100000;28;20020;-38
2022/03/09 11:05:17;;;;;;;16.80;10.18;;;24.30;22.20;;;;;;5117709;28;20357;-39
2022/03/09 11:07:43;;;;;;;15.82;9.68;;;24.50;22.10;;;;;;5102130;28;20082;-38
2022/03/09 11:10:10;;;;;;;13.70;8.95;;;24.70;22.10;;;;;;5119467;28;20477;-39
2022/03/09 11:12:39;;;;;;;15.77;8.93;;;24.80;22.00;;;;;;5120915;28;20072;-37
2022/03/09 11:15:05;;;;;;;13.27;8.48;;;24.90;22.10;;;;;;5103265;28;20043;-43
2022/03/09 11:17:32;;;;;;;12.48;8.07;;;24.90;22.10;;;;;;5118449;28;20012;-41
2022/03/09 11:19:58;;;;;;;13.90;8.63;;;24.90;22.10;;;;;;5119479;28;20027;-41
2022/03/09 11:22:25;;;;;;;14.23;8.23;;;24.90;22.20;;;;;;5101495;28;20011;-40
2022/03/09 11:24:52;;;;;;;13.20;8.15;;;24.80;22.20;;;;;;5101235;28;20549;-41
2022/03/09 11:27:18;;;;;;;12.38;7.75;;;24.80;22.30;;;;;;5102501;28;20039;-42
2022/03/09 11:29:44;;;;;;;10.32;7.18;;;24.80;22.40;;;;;;5102152;28;20016;-42
2022/03/09 11:32:14;;;;;;;15.68;8.02;;;24.70;22.60;;;;;;5102970;28;20023;-41
2022/03/09 11:34:41;;;;;;;;;;;24.60;22.60;;;;;;5121943;28;20011;-44
2022/03/09 11:37:16;;;;;;;13.27;6.97;;;24.50;22.70;;;;;;5120195;28;20392;-43
2022/03/09 11:40:06;;;;;;;11.75;7.30;;;24.50;22.80;;;;;;5120184;28;20028;-41
2022/03/09 11:42:34;;;;;;;13.93;6.70;;;24.40;22.80;;;;;;5108058;28;20122;-39
2022/03/09 11:45:32;;;;;;;14.32;6.75;;;24.30;23.00;;;;;;5118940;28;20508;-41
2022/03/09 11:48:05;;;;;;;13.18;7.00;;;24.20;23.60;;;;;;5055371;28;20044;-38
2022/03/09 11:50:35;;;;;;;12.88;6.78;;;24.10;23.20;;;;;;5055952;28;20028;-38
2022/03/09 11:53:06;;;;;;;14.55;7.00;;;24.10;23.30;;;;;;5055079;28;20091;-39
2022/03/09 11:55:33;;;;;;;10.52;6.53;;;24.00;23.40;;;;;;5056229;28;20452;-43
2022/03/09 11:58:05;;;;;;;10.85;7.10;;;24.00;23.60;;;;;;5055798;28;20144;-40
2022/03/09 12:00:31;;;;;;;12.65;7.05;;;23.80;23.60;;;;;;5056030;28;20021;-43
2022/03/09 12:02:57;;;;;;;12.25;6.65;;;23.80;23.70;;;;;;5054238;28;20060;-38
2022/03/09 12:05:31;;;;;;;11.32;6.80;;;23.70;23.80;;;;;;5054695;28;20044;-42
2022/03/09 12:08:04;;;;;;;12.30;6.80;;;23.60;23.90;;;;;;5053983;28;20018;-41
2022/03/09 12:10:52;;;;;;;11.82;7.07;;;23.50;24.00;;;;;;5055637;28;20029;-40
2022/03/09 12:13:31;;;;;;;11.55;7.07;;;23.40;24.10;;;;;;5055586;28;20022;-41
2022/03/09 12:16:26;;;;;;;12.18;7.85;;;23.40;24.20;;;;;;5056159;28;20014;-44
2022/03/09 12:19:06;;;;;;;12.00;7.20;;;23.20;24.30;;;;;;5055402;28;20021;-42
2022/03/09 12:21:34;;;;;;;14.25;7.10;;;23.10;24.40;;;;;;5053333;28;20021;-39
2022/03/09 12:24:00;;;;;;;13.25;7.10;;;23.00;24.50;;;;;;5098202;28;20496;-44
2022/03/09 12:26:46;;;;;;;14.38;6.93;;;23.00;24.60;;;;;;5119145;28;20023;-40
2022/03/09 12:29:21;;;;;;;21.30;7.43;;;22.90;24.70;;;;;;5117248;28;20018;-39
2022/03/09 12:32:07;;;;;;;15.00;6.93;;;22.80;24.80;;;;;;5117734;28;20046;-39
2022/03/09 12:34:35;;;;;;;12.18;6.80;;;22.70;24.90;;;;;;5097917;28;20053;-38
2022/03/09 12:37:01;;;;;;;12.30;7.00;;;22.70;25.00;;;;;;5117818;28;20034;-39
2022/03/09 12:39:27;;;;;;;9.80;7.20;;;22.60;25.10;;;;;;5117505;28;20015;-40
2022/03/09 12:41:54;;;;;;;9.82;7.20;;;22.60;25.20;;;;;;5116572;28;20051;-39
2022/03/09 12:44:23;;;;;;;15.25;7.05;;;22.50;25.30;;;;;;5117675;28;20020;-44